Azle, Texas
Current Conditions -  °F | °C
As of 8:52 AM on Friday 19 Dec 2014 (Local Time) from KNFW Reporting Station
Overcast Overcast  
Wind Chill: 45°   Ceiling: 700
Heat Index: 49°   Visibility: 10mi
Dew Point: 42°   Wind: 10mph
Humidity: 77%   Direction: 360°N
Pressure: 30.23"   Gusts: NA
Location:  32.88°N, 97.54°W
Report Text: KNFW 191452Z 36009KT 10SM OVC007 09/06 A3023 RMK AO2 SLP220 60001 T00940056 53008
Loading
Personal Weather Stations






























Interactive Weather Map New forecast layout! Learn more

10-Day Weather Forecast

Advertisements
Track Severe Weather on mobile